Landels-Hill Big Creek Reserve Entrance, California Weather observations

Data are for 10 minute period ending at time listed.
 Day   Time   Solar   Ave.   Ave.  Ave.  Vector  Max.   Baro.   Total    
  of    of     Rad.   Air    Rel.  Wind   Wind   Wind  Press.  Precip.   
Year   Day            Temp.  Hum.  Speed  Dir.   Gust                    
2016   (PST)  Kw/m2    F      %     mph   deg.    mph    mb.     in.     
-------------------------------------------------------------------------
 343   10:10   0.05   58.1    88    3.7   278    12.9   1019.0    0.00 
 343   10:20   0.05   58.3    87    3.7   274     8.6   1019.1    0.00 
 343   10:30   0.05   58.2    88    2.5   287     8.6   1019.2    0.00 
 343   10:40   0.06   57.9    89    1.9   285     7.7   1019.3    0.00 
 343   10:50   0.07   57.9    90    2.1   287     7.1   1019.3    0.00 
 343   11:00   0.07   58.1    89    1.8   282     6.6   1019.1    0.00 
 343   11:10   0.07   58.4    89    2.4   277     9.5   1018.9    0.00 
 343   11:20   0.07   58.4    89    2.4   295     5.5   1018.8    0.01 
 343   11:30   0.08   58.5    89    1.6   312     5.6   1018.6    0.00 
 343   11:40   0.06   58.5    90    1.7   302     6.7   1018.5    0.00 
 343   11:50   0.08   58.4    89    2.2   267     6.5   1018.4    0.00 
 343   12:00   0.09   58.4    88    2.0   271     7.7   1018.4    0.00 
 343   12:10   0.10   58.7    88    1.7   316     6.1   1018.3    0.00 
 343   12:20   0.10   58.8    88    1.6   322     5.0   1018.2    0.01 
 343   12:30   0.09   58.8    88    1.2     3     3.7   1018.2    0.00 
 343   12:40   0.07   58.9    88    1.0    25     3.1   1018.1    0.00 
 343   12:50   0.07   59.2    89    0.6     5     2.4   1018.1    0.03 
 343   13:00   0.08   59.1    90    0.6   100     2.1   1018.2    0.00 
 343   13:10   0.08   58.7    90    0.8   337     4.2   1018.2    0.01 
 343   13:20   0.06   58.5    91    0.4     4     2.7   1018.3    0.01 
 343   13:30   0.09   58.8    92    0.4     2     2.0   1018.2    0.02 
 343   13:40   0.10   59.0    92    0.2    16     1.5   1018.1    0.01 
 343   13:50   0.08   58.9    92    0.6   280     3.2   1018.0    0.00 
 343   14:00   0.07   58.5    92    0.7    14     2.4   1017.9    0.00 
 343   14:10   0.06   58.6    92    0.5   356     2.2   1018.0    0.00 
 343   14:20   0.07   58.8    92    1.2    13     3.1   1018.0    0.00 
 343   14:30   0.04   58.9    93    1.3    18     3.7   1018.0    0.00 
 343   14:40   0.05   59.0    93    0.9    21     2.6   1018.0    0.04 
 343   14:50   0.05   59.1    93    0.8    36     2.3   1018.0    0.00 
 343   15:00   0.03   58.6    93    1.1   263     4.8   1018.2    0.02 
 343   15:10   0.04   58.0    94    0.9    30     1.8   1018.1    0.02 
 343   15:20   0.04   58.3    94    1.2   355     3.0   1018.2    0.00 
 343   15:30   0.04   58.4    94    0.3    35     1.7   1018.3    0.03 
 343   15:40   0.04   58.7    94    0.4   358     1.5   1018.4    0.01 
 343   15:50   0.04   58.8    94    0.1    38     1.2   1018.3    0.00 
 343   16:00   0.03   58.8    94    1.6    33     3.5   1018.2    0.01 
 343   16:10   0.03   58.9    94    0.6   145     1.8   1018.3    0.00 
 343   16:20   0.02   58.5    94    0.3     2     1.3   1018.2    0.00 
 343   16:30   0.01   58.6    95    2.1    12     4.8   1018.2    0.01 
 343   16:40   0.01   58.7    94    0.8   175     3.2   1018.3    0.00 
 343   16:50   0.00   58.2    94    0.2    14     1.5   1018.4    0.01 
 343   17:00   0.00   58.4    95    1.5    45     3.8   1018.5    0.01 
 343   17:10   0.00   58.5    94    0.1    70     1.4   1018.5    0.04 
 343   17:20   0.00   58.4    95    0.5   149     2.3   1018.5    0.01 
 343   17:30   0.00   58.0    94    0.2   350     1.4   1018.6    0.01 
 343   17:40   0.00   57.8    95    0.2    36     1.2   1018.5    0.00 
 343   17:50   0.00   57.5    95    0.0     0     0.0   1018.5    0.02 
 343   18:00   0.00   57.7    95    0.9    49     2.3   1018.5    0.01 
 343   18:10   0.00   57.7    95    0.1    43     1.3   1018.7    0.00 
 343   18:20   0.00   57.4    95    0.2    61     1.5   1018.8    0.00 
 343   18:30   0.00   57.1    95    0.2    10     1.3   1018.8    0.01 
 343   18:40   0.00   57.0    95    0.0   359     0.7   1018.8    0.02 
 343   18:50   0.00   57.2    95    0.1    18     0.9   1019.0    0.01 
 343   19:00   0.00   57.6    96    0.7    50     2.1   1019.1    0.01 
 343   19:10   0.00   57.6    95    0.1   311     1.3   1019.1    0.00 
 343   19:20   0.00   57.5    96    0.2   253     2.0   1019.2    0.01 
 343   19:30   0.00   57.6    95    0.1   124     1.0   1019.3    0.00 
 343   19:40   0.00   57.2    95    0.1   354     0.9   1019.5    0.00 
 343   19:50   0.00   57.1    96    0.0     0     0.0   1019.5    0.00 
 343   20:00   0.00   57.0    96    0.3   356     2.0   1019.6    0.00 
 343   20:10   0.00   57.0    96    0.1    19     1.3   1019.7    0.00 
 343   20:20   0.00   57.1    96    0.1   355     1.5   1019.9    0.00 
 343   20:30   0.00   57.1    96    0.4    39     2.0   1020.0    0.00 
 343   20:40   0.00   57.4    96    0.7    40     1.8   1019.8    0.00 
 343   20:50   0.00   57.5    96    1.3    24     3.0   1019.8    0.00 
 343   21:00   0.00   57.3    96    0.6    32     2.3   1019.8    0.00 
 343   21:10   0.00   57.3    96    0.7     8     1.5   1020.0    0.00 
 343   21:20   0.00   57.2    96    0.7    12     2.6   1020.1    0.00 
 343   21:30   0.00   57.1    96    0.6    22     1.5   1020.1    0.00 
 343   21:40   0.00   57.2    96    0.9     4     2.3   1020.1    0.00 
 343   21:50   0.00   56.9    96    0.7    14     2.2   1020.0    0.00 
 343   22:00   0.00   56.9    96    0.8   358     2.3   1020.0    0.00 
 343   22:10   0.00   57.1    96    1.0    50     2.7   1020.1    0.01 
 343   22:20   0.00   57.2    96    0.6    24     2.6   1020.1    0.00 
 343   22:30   0.00   57.3    96    0.7    14     2.6   1020.2    0.00 
 343   22:40   0.00   56.8    96    0.0     8     0.6   1020.3    0.00 
 343   22:50   0.00   57.0    96    0.0    18     0.7   1020.4    0.00 
 343   23:00   0.00   57.3    96    0.5    69     1.9   1020.5    0.00 
 343   23:10   0.00   57.2    96    0.0   116     0.5   1020.6    0.00 
 343   23:20   0.00   57.4    96    0.3    19     1.5   1020.6    0.00 
 343   23:30   0.00   57.2    96    0.5     1     1.2   1020.6    0.00 
 343   23:40   0.00   56.7    96    0.4     5     1.2   1020.6    0.00 
 343   23:50   0.00   56.9    96    0.3    27     1.5   1020.5    0.00 
 344    0:00   0.00   56.7    96    0.5    60     1.6   1020.4    0.00 
 344    0:10   0.00   56.9    96    0.7    21     2.3   1020.3    0.00 
 344    0:20   0.00   56.8    96    0.3     6     1.7   1020.2    0.00 
 344    0:30   0.00   56.0    96    0.1     2     1.2   1020.3    0.00 
 344    0:40   0.00   55.9    96    0.0     0     0.0   1020.4    0.00 
 344    0:50   0.00   55.9    96    0.8   352     1.6   1020.3    0.00 
 344    1:00   0.00   56.0    96    0.4    12     1.7   1020.3    0.00 
 344    1:10   0.00   56.5    96    0.9    28     2.1   1020.2    0.00 
 344    1:20   0.00   56.6    96    0.3     2     1.5   1020.2    0.00 
 344    1:30   0.00   56.5    96    0.7    23     2.6   1020.1    0.00 
 344    1:40   0.00   56.5    96    0.2   349     1.5   1020.1    0.00 
 344    1:50   0.00   56.3    96    0.2   147     1.4   1020.2    0.00 
 344    2:00   0.00   56.1    96    0.0   359     1.0   1020.2    0.00 
 344    2:10   0.00   55.7    96    0.7     8     2.6   1020.2    0.00 
 344    2:20   0.00   56.1    96    0.1    66     1.7   1020.2    0.00 
 344    2:30   0.00   55.6    96    0.0     0     0.0   1020.2    0.00 
 344    2:40   0.00   55.2    96    0.4     5     2.4   1020.3    0.00 
 344    2:50   0.00   55.4    96    1.1    11     2.8   1020.3    0.00 
 344    3:00   0.00   55.3    96    1.5    14     2.8   1020.2    0.00 
 344    3:10   0.00   55.3    96    1.2    30     2.3   1020.1    0.00 
 344    3:20   0.00   55.4    96    0.6    39     2.0   1020.1    0.00 
 344    3:30   0.00   55.5    96    1.2    33     2.6   1020.2    0.00 
 344    3:40   0.00   55.7    96    0.9    43     3.9   1020.1    0.00 
 344    3:50   0.00   55.6    96    1.5    49     3.7   1020.0    0.00 
 344    4:00   0.00   55.4    96    1.5    34     3.7   1019.9    0.00 
 344    4:10   0.00   55.5    96    0.5    73     2.3   1020.0    0.00 
 344    4:20   0.00   55.1    96    1.2    69     3.5   1020.0    0.00 
 344    4:30   0.00   55.1    96    1.5    25     3.4   1020.0    0.00 
 344    4:40   0.00   55.0    96    1.1    67     2.4   1020.0    0.00 
 344    4:50   0.00   55.1    96    1.7    45     3.4   1019.9    0.00 
 344    5:00   0.00   55.4    96    1.0    58     2.9   1020.0    0.00 
 344    5:10   0.00   55.5    96    0.5    22     2.5   1020.1    0.00 
 344    5:20   0.00   55.2    96    1.3    27     3.7   1020.1    0.00 
 344    5:30   0.00   55.0    96    1.8    26     3.9   1020.1    0.00 
 344    5:40   0.00   55.1    96    1.5    53     4.2   1020.1    0.00 
 344    5:50   0.00   55.2    96    1.1    57     3.0   1020.2    0.00 
 344    6:00   0.00   55.2    96    1.5    25     3.9   1020.4    0.00 
 344    6:10   0.00   55.1    96    1.2    23     3.0   1020.5    0.00 
 344    6:20   0.00   55.0    96    1.1    48     3.1   1020.7    0.00 
 344    6:30   0.00   54.9    96    1.5    71     3.9   1020.7    0.00 
 344    6:40   0.00   54.9    96    1.7    60     4.0   1020.8    0.00 
 344    6:50   0.00   54.8    96    1.7    37     3.7   1020.9    0.00 
 344    7:00   0.00   54.6    96    1.7    51     4.3   1020.8    0.00 
 344    7:10   0.00   54.6    96    1.5    55     3.3   1020.8    0.00 
 344    7:20   0.01   54.5    96    1.7    58     3.4   1020.9    0.00 
 344    7:30   0.01   54.6    96    2.0    61     3.7   1021.0    0.00 
 344    7:40   0.02   54.6    96    1.7    35     3.7   1020.8    0.00 
 344    7:50   0.03   54.6    96    1.8    25     4.2   1020.7    0.00 
 344    8:00   0.04   54.8    96    1.8    59     3.7   1020.9    0.00 
 344    8:10   0.05   54.9    96    1.6    79     4.0   1020.9    0.00 
 344    8:20   0.06   55.0    96    1.3    22     2.9   1021.0    0.00 
 344    8:30   0.06   55.0    96    1.3    63     2.9   1021.1    0.00 
 344    8:40   0.07   55.4    96    1.4    54     3.4   1021.1    0.00 
 344    8:50   0.10   56.0    96    0.6    33     2.9   1021.4    0.00 
 344    9:00   0.15   56.7    96    0.8    18     2.4   1021.5    0.00 
 344    9:10   0.16   57.2    96    1.8    11     3.7   1021.4    0.00 
 344    9:20   0.14   58.0    96    0.6   140     2.3   1021.4    0.00 
 344    9:30   0.11   58.7    95    0.5   265     2.0   1021.4    0.00 
 344    9:40   0.09   58.5    95    0.4   266     2.1   1021.6    0.00 
 344    9:50   0.10   58.5    95    0.1   258     1.3   1021.8    0.00 
 344   10:00   0.10   58.8    95    0.2   199     1.1   1021.9    0.00 

Return to Big Creek Reserve Entrance graphs page.


Western Regional Climate Center,wrcc@dri.edu